createdAt,value
2023-01-29T00:00:49.116Z,97050.84
2023-01-29T00:03:52.516Z,97047.47
2023-01-29T00:06:54.374Z,97057.19
2023-01-29T00:09:56.078Z,97055.09
2023-01-29T00:12:57.985Z,97067.09
2023-01-29T00:16:00.143Z,97059.22
2023-01-29T00:19:03.025Z,97053.59
2023-01-29T00:22:04.812Z,97059.41
2023-01-29T00:25:07.205Z,97044.13
2023-01-29T00:28:09.542Z,97044.31
2023-01-29T00:31:21.134Z,97037.47
2023-01-29T00:34:23.604Z,97061.50
2023-01-29T00:37:25.848Z,97076.31
2023-01-29T00:40:27.667Z,97071.25
2023-01-29T00:43:49.111Z,97058.53
2023-01-29T00:46:51.414Z,97051.72
2023-01-29T00:49:53.970Z,97054.28
2023-01-29T00:52:55.928Z,97056.84
2023-01-29T00:55:57.694Z,97049.75
2023-01-29T00:58:59.720Z,97050.44
2023-01-29T01:02:20.943Z,97037.66
2023-01-29T01:05:24.517Z,97043.78
2023-01-29T01:08:44.891Z,97066.25
2023-01-29T01:11:47.253Z,97045.63
2023-01-29T01:14:49.665Z,97062.88
2023-01-29T01:18:02.516Z,97069.97
2023-01-29T01:21:05.134Z,97049.88
2023-01-29T01:24:07.460Z,97056.84
2023-01-29T01:27:09.646Z,97050.66
2023-01-29T01:30:16.962Z,97058.94
2023-01-29T01:33:19.027Z,97070.94
2023-01-29T01:36:21.280Z,97062.19
2023-01-29T01:39:24.171Z,97039.94
2023-01-29T01:42:30.622Z,97043.34
2023-01-29T01:45:36.206Z,97051.63
2023-01-29T01:48:38.765Z,97050.00
2023-01-29T01:51:45.467Z,97052.63
2023-01-29T01:54:48.952Z,97055.88
2023-01-29T01:57:55.118Z,97046.66
2023-01-29T02:00:57.341Z,97052.00
2023-01-29T02:04:26.610Z,97060.56
2023-01-29T02:07:47.310Z,97039.00
2023-01-29T02:10:50.306Z,97047.66
2023-01-29T02:13:53.795Z,97043.34
2023-01-29T02:17:01.701Z,97043.16
2023-01-29T02:20:12.472Z,97044.56
2023-01-29T02:23:14.179Z,97045.44
2023-01-29T02:26:23.261Z,97036.16
2023-01-29T02:29:34.715Z,97037.16
2023-01-29T02:32:54.540Z,97022.41
2023-01-29T02:36:25.691Z,97045.34
2023-01-29T02:39:48.787Z,97047.19
2023-01-29T02:43:17.059Z,97043.66
2023-01-29T02:46:39.403Z,97047.13
2023-01-29T02:49:47.709Z,97036.38
2023-01-29T02:52:50.804Z,97043.66
2023-01-29T02:56:10.261Z,97049.69
2023-01-29T02:59:20.251Z,97035.41
2023-01-29T03:02:31.975Z,97036.94
2023-01-29T03:06:06.386Z,97054.03
2023-01-29T03:09:16.930Z,97041.19
2023-01-29T03:12:36.376Z,97034.38
2023-01-29T03:15:47.014Z,97046.28
2023-01-29T03:19:06.748Z,97034.38
2023-01-29T03:22:11.555Z,97045.59
2023-01-29T03:25:33.909Z,97046.44
2023-01-29T03:28:55.243Z,97032.59
2023-01-29T03:32:07.784Z,97042.13
2023-01-29T03:35:21.641Z,97051.84
2023-01-29T03:38:29.742Z,97026.13
2023-01-29T03:41:40.527Z,97015.63
2023-01-29T03:44:49.229Z,97041.19
2023-01-29T03:48:11.035Z,97045.72
2023-01-29T03:51:26.955Z,97039.56
2023-01-29T03:54:38.409Z,97035.16
2023-01-29T03:57:53.616Z,97031.75
2023-01-29T04:01:03.455Z,97019.22
2023-01-29T04:04:10.413Z,97037.91
2023-01-29T04:07:24.571Z,97021.00
2023-01-29T04:10:38.826Z,97032.22
2023-01-29T04:13:42.127Z,97035.59
2023-01-29T04:16:53.951Z,97023.78
2023-01-29T04:20:17.446Z,97037.38
2023-01-29T04:23:26.190Z,97028.03
2023-01-29T04:26:52.453Z,97036.44
2023-01-29T04:30:06.101Z,97032.97
2023-01-29T04:33:19.594Z,97011.66
2023-01-29T04:36:48.973Z,97030.22
2023-01-29T04:40:04.373Z,97008.19
2023-01-29T04:43:15.917Z,97039.94
2023-01-29T04:46:25.352Z,97026.19
2023-01-29T04:49:40.682Z,97033.81
2023-01-29T04:52:54.391Z,97026.25
2023-01-29T04:56:01.030Z,97039.31
2023-01-29T04:59:08.058Z,97026.06
2023-01-29T05:02:12.087Z,97052.75
2023-01-29T05:05:18.133Z,97045.91
2023-01-29T05:08:23.699Z,97045.97
2023-01-29T05:11:26.566Z,97046.78
2023-01-29T05:14:31.293Z,97045.22
2023-01-29T05:17:33.483Z,97035.78
2023-01-29T05:20:39.320Z,97043.66
2023-01-29T05:23:53.591Z,97067.78
2023-01-29T05:27:13.984Z,97056.16
2023-01-29T05:30:16.290Z,97049.91
2023-01-29T05:33:22.403Z,97063.44
2023-01-29T05:36:26.948Z,97044.66
2023-01-29T05:39:29.583Z,97048.06
2023-01-29T05:42:32.767Z,97047.34
2023-01-29T05:45:34.567Z,97067.06
2023-01-29T05:48:36.254Z,97066.16
2023-01-29T05:51:39.227Z,97042.25
2023-01-29T05:54:41.488Z,97039.63
2023-01-29T05:57:43.582Z,97062.59
2023-01-29T06:00:45.733Z,97050.53
2023-01-29T06:03:48.297Z,97045.72
2023-01-29T06:06:50.588Z,97044.81
2023-01-29T06:09:52.357Z,97048.78
2023-01-29T06:12:54.031Z,97048.16
2023-01-29T06:15:55.748Z,97055.00
2023-01-29T06:18:57.535Z,97039.56
2023-01-29T06:21:59.907Z,97043.09
2023-01-29T06:25:02.203Z,97041.38
2023-01-29T06:28:04.154Z,97059.41
2023-01-29T06:31:24.036Z,97056.78
2023-01-29T06:34:29.992Z,97062.69
2023-01-29T06:37:32.244Z,97053.16
2023-01-29T06:40:33.924Z,97050.78
2023-01-29T06:43:35.700Z,97035.16
2023-01-29T06:46:37.661Z,97031.53
2023-01-29T06:49:39.525Z,97038.34
2023-01-29T06:52:42.715Z,97047.41
2023-01-29T06:55:51.636Z,97032.72
2023-01-29T06:58:53.410Z,97016.19
2023-01-29T07:01:55.220Z,97014.56
2023-01-29T07:04:56.927Z,97018.75
2023-01-29T07:07:58.793Z,97027.25
2023-01-29T07:11:01.717Z,97024.91
2023-01-29T07:14:04.260Z,97027.34
2023-01-29T07:17:06.032Z,97021.22
2023-01-29T07:20:10.336Z,97021.84
2023-01-29T07:23:14.065Z,97006.53
2023-01-29T07:26:16.154Z,97045.19
2023-01-29T07:29:18.356Z,97034.75
2023-01-29T07:32:20.040Z,97024.53
2023-01-29T07:35:22.752Z,97042.34
2023-01-29T07:38:24.488Z,97038.22
2023-01-29T07:41:26.792Z,97035.28
2023-01-29T07:44:28.745Z,97031.06
2023-01-29T07:47:30.497Z,97039.50
2023-01-29T07:50:34.928Z,97017.31
2023-01-29T07:53:37.106Z,97029.06
2023-01-29T07:56:39.980Z,97015.38
2023-01-29T07:59:43.184Z,97018.72
2023-01-29T08:02:44.860Z,97031.63
2023-01-29T08:05:47.132Z,97032.13
2023-01-29T08:08:49.812Z,97039.72
2023-01-29T08:11:52.705Z,97052.38
2023-01-29T08:14:54.472Z,97034.31
2023-01-29T08:17:57.980Z,97052.00
2023-01-29T08:21:01.912Z,97038.41
2023-01-29T08:24:18.446Z,97050.69
2023-01-29T08:27:20.876Z,97056.03
2023-01-29T08:30:23.419Z,97053.09
2023-01-29T08:33:38.268Z,97064.47
2023-01-29T08:36:42.124Z,97057.88
2023-01-29T08:39:44.408Z,97084.38
2023-01-29T08:43:51.995Z,97087.78
2023-01-29T09:24:12.073Z,97086.88
2023-01-29T09:28:06.714Z,97087.56
2023-01-29T09:35:42.329Z,97112.41
2023-01-29T09:39:24.240Z,97105.56
2023-01-29T09:43:23.529Z,97110.63
2023-01-29T10:04:56.897Z,97121.22
2023-01-29T10:08:39.393Z,97117.66
2023-01-29T10:12:05.623Z,97115.69
2023-01-29T10:15:40.760Z,97127.66
2023-01-29T10:19:16.215Z,97117.59
2023-01-29T10:23:34.830Z,97114.50
2023-01-29T10:26:49.710Z,97109.09
2023-01-29T10:30:09.152Z,97086.84
2023-01-29T10:34:01.579Z,97098.44
2023-01-29T10:38:06.385Z,97100.13
2023-01-29T10:42:07.787Z,97088.44
2023-01-29T10:46:01.854Z,97091.16
2023-01-29T10:49:29.033Z,97073.38
2023-01-29T10:52:51.753Z,97096.28
2023-01-29T10:55:56.414Z,97088.53
2023-01-29T10:59:05.552Z,97058.28
2023-01-29T11:02:18.164Z,97057.44
2023-01-29T11:06:18.767Z,97048.72
2023-01-29T11:09:55.725Z,97078.78
2023-01-29T11:12:59.359Z,97073.59
2023-01-29T11:16:01.143Z,97054.59
2023-01-29T11:19:03.029Z,97037.72
2023-01-29T11:22:05.112Z,97050.53
2023-01-29T11:25:12.651Z,97032.53
2023-01-29T11:28:14.437Z,97016.88
2023-01-29T11:31:22.738Z,97032.69
2023-01-29T11:34:27.893Z,96998.13
2023-01-29T11:37:55.748Z,96999.00
2023-01-29T11:41:16.606Z,97021.41
2023-01-29T11:44:43.965Z,97006.16
2023-01-29T11:47:52.381Z,97011.94
2023-01-29T11:51:08.269Z,96999.84
2023-01-29T12:07:42.925Z,97028.31
2023-01-29T12:10:44.763Z,97029.22
2023-01-29T12:13:54.292Z,97011.59
2023-01-29T12:17:18.559Z,97011.44
2023-01-29T12:20:26.763Z,97005.94
2023-01-29T12:23:36.629Z,96997.97
2023-01-29T12:26:45.666Z,96997.88
2023-01-29T12:30:22.606Z,96991.00
2023-01-29T12:33:37.028Z,96970.03
2023-01-29T12:36:47.036Z,96963.91
2023-01-29T12:39:49.715Z,96958.72
2023-01-29T12:42:57.828Z,96958.84
2023-01-29T12:46:02.107Z,96950.75
2023-01-29T12:49:09.811Z,96955.19
2023-01-29T12:52:34.887Z,96942.94
2023-01-29T12:55:47.947Z,96945.59
2023-01-29T12:58:53.350Z,96934.91
2023-01-29T13:02:30.182Z,96940.09
2023-01-29T13:05:41.340Z,96937.53
2023-01-29T13:08:53.739Z,96932.19
2023-01-29T13:12:11.464Z,96930.34
2023-01-29T13:15:13.086Z,96927.72
2023-01-29T13:18:44.578Z,96933.06
2023-01-29T13:21:47.325Z,96935.69
2023-01-29T13:24:58.744Z,96933.91
2023-01-29T13:28:05.749Z,96925.38
2023-01-29T13:31:29.044Z,96925.50
2023-01-29T13:34:44.375Z,96916.84
2023-01-29T13:37:53.253Z,96901.13
2023-01-29T13:41:00.781Z,96894.16
2023-01-29T13:44:05.275Z,96889.41
2023-01-29T13:47:12.261Z,96892.66
2023-01-29T13:50:38.733Z,96888.13
2023-01-29T13:53:41.874Z,96896.03
2023-01-29T13:56:49.847Z,96897.16
2023-01-29T13:59:54.638Z,96895.44
2023-01-29T14:03:05.358Z,96901.56
2023-01-29T14:06:06.990Z,96895.59
2023-01-29T14:09:53.346Z,96887.19
2023-01-29T14:13:15.404Z,96883.84
2023-01-29T14:16:16.942Z,96889.25
2023-01-29T14:19:19.964Z,96878.13
2023-01-29T14:22:27.715Z,96880.69
2023-01-29T14:25:35.552Z,96888.16
2023-01-29T14:28:37.195Z,96881.97
2023-01-29T14:31:43.286Z,96881.97
2023-01-29T14:34:49.574Z,96877.28
2023-01-29T14:37:54.626Z,96890.16
2023-01-29T14:41:07.580Z,96893.63
2023-01-29T14:44:46.801Z,96895.59
2023-01-29T14:47:48.323Z,96905.34
2023-01-29T14:50:53.453Z,96908.03
2023-01-29T14:54:13.144Z,96894.75
2023-01-29T14:57:17.940Z,96889.56
2023-01-29T15:00:30.262Z,96893.03
2023-01-29T15:03:45.848Z,96897.38
2023-01-29T15:06:53.057Z,96892.13
2023-01-29T15:10:22.757Z,96888.72
2023-01-29T15:13:35.808Z,96888.91
2023-01-29T15:17:06.813Z,96889.75
2023-01-29T15:20:28.635Z,96901.25
2023-01-29T15:23:32.520Z,96905.75
2023-01-29T15:26:35.894Z,96920.84
2023-01-29T15:29:38.330Z,96919.06
2023-01-29T15:32:40.334Z,96908.56
2023-01-29T15:35:42.535Z,96894.63
2023-01-29T15:38:44.121Z,96885.81
2023-01-29T15:41:46.203Z,96886.75
2023-01-29T15:44:48.085Z,96880.56
2023-01-29T15:47:50.570Z,96874.69
2023-01-29T15:50:54.638Z,96888.00
2023-01-29T15:54:15.929Z,96883.84
2023-01-29T15:57:24.601Z,96899.59
2023-01-29T16:00:29.421Z,96901.41
2023-01-29T16:03:33.363Z,96895.44
2023-01-29T16:06:40.213Z,96888.50
2023-01-29T16:09:43.102Z,96902.34
2023-01-29T16:12:51.160Z,96904.25
2023-01-29T16:16:01.539Z,96903.41
2023-01-29T16:19:19.835Z,96893.31
2023-01-29T16:22:21.411Z,96895.25
2023-01-29T16:25:23.535Z,96899.47
2023-01-29T16:28:25.191Z,96891.69
2023-01-29T16:31:29.103Z,96897.94
2023-01-29T16:35:00.227Z,96888.44
2023-01-29T16:38:16.158Z,96884.38
2023-01-29T16:41:26.603Z,96885.75
2023-01-29T16:44:28.085Z,96898.88
2023-01-29T16:47:32.436Z,96898.94
2023-01-29T16:50:46.305Z,96902.50
2023-01-29T16:54:18.466Z,96911.34
2023-01-29T16:57:24.791Z,96921.00
2023-01-29T17:00:29.643Z,96916.59
2023-01-29T17:03:34.053Z,96925.31
2023-01-29T17:06:36.221Z,96921.75
2023-01-29T17:09:38.297Z,96928.78
2023-01-29T17:12:39.868Z,96927.09
2023-01-29T17:15:43.033Z,96930.66
2023-01-29T17:18:44.590Z,96934.97
2023-01-29T17:21:49.360Z,96925.47
2023-01-29T17:24:51.580Z,96922.38
2023-01-29T17:28:18.986Z,96928.94
2023-01-29T17:31:21.007Z,96905.94
2023-01-29T17:34:26.718Z,96913.34
2023-01-29T17:37:29.493Z,96891.25
2023-01-29T17:40:40.534Z,96894.66
2023-01-29T17:43:44.251Z,96909.19
2023-01-29T17:46:47.648Z,96910.25
2023-01-29T17:49:57.807Z,96904.31
2023-01-29T17:53:11.856Z,96894.97
2023-01-29T17:56:46.529Z,96923.84
2023-01-29T17:59:48.893Z,96909.25
2023-01-29T18:08:03.478Z,96913.97
2023-01-29T18:14:24.602Z,96900.84
2023-01-29T18:17:34.766Z,96906.88
2023-01-29T18:20:48.010Z,96895.91
2023-01-29T18:23:50.263Z,96898.53
2023-01-29T18:27:25.726Z,96924.34
2023-01-29T18:30:28.497Z,96913.25
2023-01-29T18:34:59.452Z,96921.84
2023-01-29T18:38:59.994Z,96926.19
2023-01-29T18:42:01.855Z,96919.63
2023-01-29T18:45:04.033Z,96894.66
2023-01-29T18:51:41.917Z,96922.00
2023-01-29T18:54:52.127Z,96903.31
2023-01-29T18:58:25.148Z,96904.41
2023-01-29T19:01:39.259Z,96919.00
2023-01-29T19:04:42.279Z,96914.06
2023-01-29T19:07:44.325Z,96916.59
2023-01-29T19:10:46.289Z,96915.47
2023-01-29T19:13:49.942Z,96916.13
2023-01-29T19:16:51.964Z,96910.09
2023-01-29T19:19:58.935Z,96895.75
2023-01-29T19:23:00.844Z,96905.09
2023-01-29T19:26:02.833Z,96910.34
2023-01-29T19:29:04.747Z,96901.00
2023-01-29T19:32:06.810Z,96901.88
2023-01-29T19:35:09.051Z,96898.69
2023-01-29T19:38:12.377Z,96890.91
2023-01-29T19:41:14.246Z,96898.69
2023-01-29T19:44:16.143Z,96897.78
2023-01-29T19:47:17.920Z,96902.25
2023-01-29T19:50:20.694Z,96885.66
2023-01-29T19:53:23.211Z,96864.31
2023-01-29T19:56:26.352Z,96861.69
2023-01-29T19:59:28.119Z,96870.41
2023-01-29T20:02:33.941Z,96880.91
2023-01-29T20:05:37.591Z,96879.06
2023-01-29T20:08:39.453Z,96870.53
2023-01-29T20:11:41.232Z,96879.00
2023-01-29T20:14:48.879Z,96882.25
2023-01-29T20:17:53.653Z,96870.53
2023-01-29T20:21:06.190Z,96876.38
2023-01-29T20:24:12.367Z,96871.34
2023-01-29T20:27:23.396Z,96883.16
2023-01-29T20:30:28.977Z,96868.28
2023-01-29T20:33:31.218Z,96873.34
2023-01-29T20:36:33.174Z,96880.44
2023-01-29T20:39:34.976Z,96866.66
2023-01-29T20:42:37.052Z,96874.59
2023-01-29T20:45:42.282Z,96866.09
2023-01-29T20:48:44.377Z,96879.63
2023-01-29T20:51:46.380Z,96880.56
2023-01-29T20:54:48.147Z,96871.19
2023-01-29T20:58:05.547Z,96872.03
2023-01-29T21:01:13.165Z,96862.69
2023-01-29T21:04:16.800Z,96861.63
2023-01-29T21:07:18.860Z,96866.56
2023-01-29T21:10:20.717Z,96863.31
2023-01-29T21:13:22.676Z,96853.19
2023-01-29T21:16:26.355Z,96844.94
2023-01-29T21:19:31.315Z,96872.59
2023-01-29T21:22:33.583Z,96882.06
2023-01-29T21:25:36.204Z,96848.88
2023-01-29T21:28:38.049Z,96851.19
2023-01-29T21:31:40.884Z,96866.31
2023-01-29T21:34:42.722Z,96845.09
2023-01-29T21:37:44.538Z,96856.22
2023-01-29T21:40:50.358Z,96834.84
2023-01-29T21:43:56.053Z,96826.34
2023-01-29T21:46:59.670Z,96839.91
2023-01-29T21:50:01.744Z,96836.59
2023-01-29T21:53:06.830Z,96831.50
2023-01-29T21:56:10.068Z,96828.13
2023-01-29T21:59:12.344Z,96824.72
2023-01-29T22:02:15.277Z,96817.16
2023-01-29T22:05:19.772Z,96842.84
2023-01-29T22:08:30.829Z,96832.59
2023-01-29T22:11:38.178Z,96847.41
2023-01-29T22:14:43.699Z,96836.19
2023-01-29T22:17:48.195Z,96830.28
2023-01-29T22:21:02.778Z,96807.97
2023-01-29T22:24:05.337Z,96808.19
2023-01-29T22:27:16.664Z,96807.47
2023-01-29T22:30:31.031Z,96782.88
2023-01-29T22:33:59.783Z,96801.56
2023-01-29T22:37:03.206Z,96780.31
2023-01-29T22:40:11.629Z,96782.09
2023-01-29T22:43:13.977Z,96782.31
2023-01-29T22:46:15.985Z,96781.47
2023-01-29T22:49:20.149Z,96772.06
2023-01-29T22:52:26.209Z,96768.66
2023-01-29T22:55:31.249Z,96783.16
2023-01-29T22:58:42.633Z,96773.13
2023-01-29T23:01:48.384Z,96770.72
2023-01-29T23:04:51.240Z,96758.63
2023-01-29T23:07:55.595Z,96780.13
2023-01-29T23:11:14.196Z,96755.50
2023-01-29T23:14:22.293Z,96766.69
2023-01-29T23:17:24.346Z,96771.66
2023-01-29T23:20:26.936Z,96745.81
2023-01-29T23:23:29.933Z,96765.72
2023-01-29T23:26:52.901Z,96763.00
2023-01-29T23:29:55.051Z,96740.81
2023-01-29T23:32:56.936Z,96728.75
2023-01-29T23:35:58.870Z,96750.13
2023-01-29T23:39:01.585Z,96731.25
2023-01-29T23:42:06.382Z,96726.06
2023-01-29T23:45:08.788Z,96742.41
2023-01-29T23:48:10.900Z,96742.50
2023-01-29T23:51:12.707Z,96734.34
2023-01-29T23:54:16.858Z,96730.03
2023-01-29T23:57:23.626Z,96712.00
